Time;durP1;ratioP1;P1;durP2;ratioP2;P2;SDS_P1;SDS_P2;PMS_P1;PMS_P2;Temp;Humidity;BMP_temperature;BMP_pressure;BME280_temperature;BME280_humidity;BME280_pressure;Samples;Min_cycle;Max_cycle;Signal;HPM_P1;HPM_P2
2023/12/27 00:01:06;;;;;;;0.60;0.60;;;;;;;7.15;98.58;99570.00;5073263;28;20265;-67
2023/12/27 00:03:33;;;;;;;0.77;0.77;;;;;;;7.92;96.08;99609.66;5072303;28;20196;-68
2023/12/27 00:06:00;;;;;;;1.13;1.13;;;;;;;8.32;93.35;99615.84;5072620;28;20200;-68
2023/12/27 00:08:26;;;;;;;1.10;1.10;;;;;;;8.63;91.56;99626.31;5072479;28;20645;-67
2023/12/27 00:10:54;;;;;;;0.90;0.90;;;;;;;8.75;90.22;99627.81;5072287;28;20204;-67
2023/12/27 00:13:21;;;;;;;1.87;1.77;;;;;;;8.98;89.01;99628.22;5072916;28;20729;-67
2023/12/27 00:15:48;;;;;;;0.60;0.60;;;;;;;9.08;88.72;99624.56;5073855;28;20287;-67
2023/12/27 00:18:17;;;;;;;1.17;1.17;;;;;;;9.22;87.67;99627.69;5072917;28;20245;-67
2023/12/27 00:20:44;;;;;;;1.00;1.00;;;;;;;9.32;86.99;99624.06;5071854;28;20212;-67
2023/12/27 00:23:11;;;;;;;2.73;1.27;;;;;;;9.27;87.17;99628.44;5072481;28;20234;-67
2023/12/27 00:25:37;;;;;;;0.90;0.90;;;;;;;9.39;86.92;99646.09;5071813;28;20204;-68
2023/12/27 00:28:06;;;;;;;0.97;0.97;;;;;;;9.42;86.38;99646.03;5071992;28;20630;-67
2023/12/27 00:30:32;;;;;;;0.80;0.80;;;;;;;9.49;85.60;99642.47;5072030;28;20550;-67
2023/12/27 00:32:59;;;;;;;1.27;1.27;;;;;;;9.57;85.23;99654.22;5072823;28;20196;-67
2023/12/27 00:35:26;;;;;;;0.97;0.97;;;;;;;9.56;84.89;99657.69;5072641;28;20204;-67
2023/12/27 00:37:52;;;;;;;0.70;0.70;;;;;;;9.62;84.78;99658.41;5071297;28;20245;-67
2023/12/27 00:40:19;;;;;;;1.70;1.10;;;;;;;9.67;84.85;99665.94;5071714;28;20713;-68
2023/12/27 00:42:46;;;;;;;3.70;1.20;;;;;;;9.74;85.03;99667.50;5071127;28;20210;-67
2023/12/27 00:45:14;;;;;;;0.80;0.80;;;;;;;9.78;84.71;99664.00;5072920;28;20680;-67
2023/12/27 00:47:45;;;;;;;0.70;0.70;;;;;;;9.77;85.22;99667.44;5071374;28;20196;-67
2023/12/27 00:50:12;;;;;;;1.13;1.13;;;;;;;9.84;84.09;99663.88;5073920;28;20188;-67
2023/12/27 00:52:39;;;;;;;0.90;0.90;;;;;;;9.85;84.47;99661.28;5072854;28;20645;-67
2023/12/27 00:55:06;;;;;;;1.00;1.00;;;;;;;9.81;84.59;99671.63;5071387;28;20243;-68
2023/12/27 00:57:33;;;;;;;1.10;1.10;;;;;;;9.86;84.59;99672.34;5071129;28;20269;-67
2023/12/27 01:00:00;;;;;;;0.77;0.77;;;;;;;9.82;85.00;99674.13;5071208;28;20212;-67
2023/12/27 01:02:28;;;;;;;0.50;0.50;;;;;;;9.89;84.62;99672.28;5071507;28;20206;-67
2023/12/27 01:04:55;;;;;;;0.70;0.70;;;;;;;9.91;84.78;99671.38;5072470;28;20660;-67
2023/12/27 01:07:22;;;;;;;0.60;0.60;;;;;;;9.96;84.82;99676.38;5071221;28;20200;-68
2023/12/27 01:09:49;;;;;;;0.77;0.77;;;;;;;9.97;84.46;99678.06;5071191;28;20695;-68
2023/12/27 01:12:16;;;;;;;0.80;0.80;;;;;;;9.97;84.47;99670.38;5071195;28;20253;-67
2023/12/27 01:14:43;;;;;;;2.97;1.57;;;;;;;9.97;84.39;99680.63;5071647;28;20200;-67
2023/12/27 01:17:10;;;;;;;0.97;0.97;;;;;;;10.00;84.28;99680.56;5070900;28;20248;-67
2023/12/27 01:19:39;;;;;;;0.60;0.60;;;;;;;9.96;83.33;99669.53;5072189;28;20286;-67
2023/12/27 01:22:05;;;;;;;2.00;0.87;;;;;;;10.07;83.10;99682.09;5072056;28;20200;-67
2023/12/27 01:24:32;;;;;;;0.90;0.90;;;;;;;10.10;82.63;99676.91;5071809;28;20200;-67
2023/12/27 01:26:59;;;;;;;0.63;0.63;;;;;;;10.11;82.46;99682.88;5072583;28;20195;-67
2023/12/27 01:29:26;;;;;;;0.80;0.80;;;;;;;10.16;81.79;99671.66;5070539;28;20196;-67
2023/12/27 01:31:52;;;;;;;1.50;1.43;;;;;;;10.17;81.88;99687.88;5070523;28;20196;-67
2023/12/27 01:34:19;;;;;;;1.63;1.53;;;;;;;10.10;82.08;99682.03;5072591;28;20676;-67
2023/12/27 01:36:47;;;;;;;1.27;1.27;;;;;;;10.01;82.30;99695.91;5072031;28;20204;-67
2023/12/27 01:39:15;;;;;;;0.70;0.70;;;;;;;10.03;82.28;99706.09;5070672;28;20192;-67
2023/12/27 01:41:42;;;;;;;0.80;0.80;;;;;;;9.98;81.88;99702.81;5070670;28;20218;-67
2023/12/27 01:44:08;;;;;;;0.80;0.80;;;;;;;9.97;81.39;99701.13;5072979;28;20200;-67
2023/12/27 01:46:35;;;;;;;3.87;0.90;;;;;;;9.98;80.54;99700.25;5070383;28;20245;-68
2023/12/27 01:49:02;;;;;;;1.10;1.10;;;;;;;10.00;80.44;99701.06;5070592;28;20668;-67
2023/12/27 01:51:30;;;;;;;0.80;0.80;;;;;;;10.02;79.76;99704.41;5070790;28;20302;-68
2023/12/27 01:54:00;;;;;;;0.73;0.73;;;;;;;9.93;80.05;99679.00;5070150;28;20203;-67
2023/12/27 01:56:27;;;;;;;1.43;1.43;;;;;;;10.06;79.23;99685.53;5070078;28;20191;-67
2023/12/27 01:58:54;;;;;;;0.70;0.70;;;;;;;10.11;79.25;99693.97;5073600;28;20199;-67
2023/12/27 02:01:21;;;;;;;1.23;1.13;;;;;;;10.10;79.15;99692.28;5070654;28;20719;-67
2023/12/27 02:03:48;;;;;;;0.80;0.80;;;;;;;10.19;79.02;99692.09;5071376;28;20249;-67
2023/12/27 02:06:15;;;;;;;0.73;0.73;;;;;;;10.16;79.84;99692.16;5069107;28;20258;-67
2023/12/27 02:08:42;;;;;;;1.37;1.37;;;;;;;10.18;79.27;99690.41;5070375;28;20203;-67
2023/12/27 02:11:10;;;;;;;0.90;0.90;;;;;;;10.29;77.99;99690.16;5070249;28;20200;-68
2023/12/27 02:13:37;;;;;;;0.90;0.90;;;;;;;10.31;77.83;99686.66;5074077;28;20248;-67
2023/12/27 02:16:04;;;;;;;0.80;0.80;;;;;;;10.43;77.80;99696.63;5070078;28;20200;-67
2023/12/27 02:18:32;;;;;;;1.57;0.83;;;;;;;10.39;77.26;99689.88;5070448;28;20660;-67
2023/12/27 02:20:59;;;;;;;6.07;1.00;;;;;;;10.49;77.55;99711.84;5070189;28;20212;-67
2023/12/27 02:23:27;;;;;;;2.33;1.10;;;;;;;10.47;77.41;99713.59;5071805;28;20669;-67
2023/12/27 02:25:56;;;;;;;1.40;1.30;;;;;;;10.39;77.72;99715.53;5074119;28;20204;-68
2023/12/27 02:28:22;;;;;;;3.30;1.20;;;;;;;10.32;78.10;99698.59;5074334;28;20199;-67
2023/12/27 02:30:49;;;;;;;0.83;0.77;;;;;;;10.44;78.19;99716.22;5075412;28;20192;-68
2023/12/27 02:33:16;;;;;;;4.73;1.30;;;;;;;10.43;78.42;99722.25;5074087;28;20196;-67
2023/12/27 02:35:43;;;;;;;0.70;0.70;;;;;;;10.41;78.96;99718.88;5074282;28;20245;-67
2023/12/27 02:38:09;;;;;;;0.90;0.83;;;;;;;10.37;78.77;99717.25;5074626;28;20250;-67
2023/12/27 02:40:36;;;;;;;1.50;1.20;;;;;;;10.46;78.62;99722.19;5077742;28;20222;-68
2023/12/27 02:43:04;;;;;;;2.03;1.07;;;;;;;10.46;78.44;99722.19;5074386;28;20648;-68
2023/12/27 02:45:31;;;;;;;1.00;1.00;;;;;;;10.30;78.18;99695.25;5073042;28;20204;-68
2023/12/27 02:47:57;;;;;;;0.90;0.90;;;;;;;10.40;78.45;99731.75;5073613;28;20619;-68
2023/12/27 02:50:24;;;;;;;0.97;0.97;;;;;;;10.43;78.31;99740.19;5074263;28;20619;-68
2023/12/27 02:52:51;;;;;;;0.90;0.90;;;;;;;10.36;78.43;99746.34;5073741;28;20289;-67
2023/12/27 02:55:17;;;;;;;0.70;0.70;;;;;;;10.31;78.86;99750.72;5079204;28;20200;-67
2023/12/27 02:57:44;;;;;;;4.27;1.37;;;;;;;10.30;79.01;99756.75;5074127;28;20254;-67
2023/12/27 03:00:14;;;;;;;1.13;1.13;;;;;;;10.21;79.57;99762.06;5075393;28;20192;-67
2023/12/27 03:02:40;;;;;;;1.10;1.00;;;;;;;10.15;79.52;99769.03;5072173;28;20254;-68
2023/12/27 03:05:07;;;;;;;1.33;1.23;;;;;;;10.21;80.12;99761.25;5072253;28;20208;-68
2023/12/27 03:07:34;;;;;;;3.50;1.10;;;;;;;10.23;80.12;99765.44;5073347;28;20668;-67
2023/12/27 03:10:00;;;;;;;1.60;0.80;;;;;;;10.20;79.31;99760.38;5073507;28;20211;-67
2023/12/27 03:12:27;;;;;;;0.93;0.93;;;;;;;10.12;79.34;99764.78;5073276;28;20204;-67
2023/12/27 03:14:54;;;;;;;1.33;1.10;;;;;;;10.05;80.20;99770.94;5079009;28;20757;-68
2023/12/27 03:17:22;;;;;;;1.63;1.53;;;;;;;10.03;80.49;99767.56;5073454;28;20201;-67
2023/12/27 03:19:49;;;;;;;0.77;0.77;;;;;;;9.99;80.47;99765.94;5072042;28;20196;-67
2023/12/27 03:22:15;;;;;;;0.70;0.70;;;;;;;10.05;80.67;99775.22;5073067;28;20212;-67
2023/12/27 03:24:42;;;;;;;1.37;1.27;;;;;;;10.03;79.38;99770.13;5072801;28;20196;-68
2023/12/27 03:27:10;;;;;;;0.93;0.73;;;;;;;9.97;78.80;99767.72;5073188;28;20242;-68
2023/12/27 03:29:36;;;;;;;0.80;0.80;;;;;;;9.91;78.94;99771.25;5073520;28;20580;-67
2023/12/27 03:32:03;;;;;;;0.80;0.80;;;;;;;9.82;79.32;99768.03;5073291;28;20253;-67
2023/12/27 03:34:31;;;;;;;1.27;1.27;;;;;;;9.70;79.85;99768.28;5076946;28;20250;-67
2023/12/27 03:37:02;;;;;;;0.80;0.80;;;;;;;9.58;80.12;99769.38;5073046;28;20261;-67
2023/12/27 03:39:28;;;;;;;0.97;0.97;;;;;;;9.39;81.68;99757.84;5073304;28;20196;-67
2023/12/27 03:41:55;;;;;;;0.70;0.70;;;;;;;9.39;81.59;99763.78;5072913;28;20220;-67
2023/12/27 03:44:22;;;;;;;1.13;1.13;;;;;;;9.37;82.27;99760.41;5074911;28;20241;-67
2023/12/27 03:46:48;;;;;;;0.70;0.70;;;;;;;9.35;82.67;99767.28;5077881;28;20253;-67
2023/12/27 03:49:15;;;;;;;0.80;0.80;;;;;;;9.35;82.26;99766.44;5074115;28;20196;-68
2023/12/27 03:51:43;;;;;;;0.90;0.90;;;;;;;9.29;82.72;99769.97;5072515;28;20266;-67
2023/12/27 03:54:10;;;;;;;0.93;0.83;;;;;;;9.23;83.38;99766.69;5074769;28;20253;-67
2023/12/27 03:56:36;;;;;;;0.93;0.93;;;;;;;9.23;84.19;99752.19;5075559;28;20664;-67
2023/12/27 03:59:05;;;;;;;1.90;0.80;;;;;;;9.30;84.19;99758.03;5072460;28;20199;-67
2023/12/27 04:01:32;;;;;;;0.80;0.80;;;;;;;9.36;84.28;99773.25;5072310;28;20235;-67
2023/12/27 04:03:59;;;;;;;1.30;1.00;;;;;;;9.52;83.97;99766.09;5072242;28;20199;-67
2023/12/27 04:06:26;;;;;;;1.10;1.10;;;;;;;9.60;82.98;99756.53;5075438;28;20200;-67
2023/12/27 04:08:54;;;;;;;0.97;0.97;;;;;;;9.67;82.54;99768.34;5072033;28;20291;-67
2023/12/27 04:11:21;;;;;;;1.10;1.10;;;;;;;9.69;82.42;99770.03;5073112;28;20250;-68
2023/12/27 04:13:48;;;;;;;0.60;0.60;;;;;;;9.77;81.80;99780.94;5072582;28;20801;-67
2023/12/27 04:16:14;;;;;;;1.20;1.10;;;;;;;9.67;82.36;99760.66;5074137;28;20192;-67
2023/12/27 04:18:41;;;;;;;0.60;0.60;;;;;;;9.85;82.12;99780.78;5071968;28;20196;-67
2023/12/27 04:21:08;;;;;;;0.63;0.63;;;;;;;9.96;82.04;99796.75;5071988;28;20212;-67
2023/12/27 04:23:34;;;;;;;0.67;0.67;;;;;;;9.96;81.87;99804.44;5072142;28;20204;-67
2023/12/27 04:26:02;;;;;;;0.70;0.70;;;;;;;10.13;80.90;99804.91;5076073;28;20203;-67
2023/12/27 04:28:29;;;;;;;3.20;1.70;;;;;;;10.19;80.71;99809.94;5072708;28;20196;-67
2023/12/27 04:30:56;;;;;;;1.23;1.23;;;;;;;10.24;81.17;99813.22;5076103;28;20191;-67
2023/12/27 04:33:23;;;;;;;4.90;2.13;;;;;;;10.26;81.38;99820.88;5076866;28;20231;-67
2023/12/27 04:35:49;;;;;;;1.30;1.20;;;;;;;10.30;81.50;99822.53;5075832;28;20265;-67
2023/12/27 04:38:16;;;;;;;1.47;1.47;;;;;;;10.28;81.07;99825.09;5069634;28;20196;-67
2023/12/27 04:40:45;;;;;;;3.13;1.10;;;;;;;10.24;81.19;99823.47;5071731;28;20738;-67
2023/12/27 04:43:13;;;;;;;2.50;1.57;;;;;;;10.24;81.60;99831.16;5071186;28;20219;-67
2023/12/27 04:45:40;;;;;;;1.17;1.10;;;;;;;10.20;81.82;99834.69;5073697;28;20204;-67
2023/12/27 04:48:07;;;;;;;0.57;0.57;;;;;;;10.22;81.73;99842.31;5071036;28;20241;-67
2023/12/27 04:50:34;;;;;;;1.10;1.10;;;;;;;10.16;82.11;99848.44;5072253;28;21010;-67
2023/12/27 04:53:01;;;;;;;1.80;1.07;;;;;;;10.10;82.09;99835.72;5071392;28;20665;-67
2023/12/27 04:55:27;;;;;;;0.63;0.63;;;;;;;10.05;82.07;99827.28;5071362;28;20276;-67
2023/12/27 04:57:54;;;;;;;1.33;1.27;;;;;;;10.02;81.84;99827.34;5071273;28;20208;-67
2023/12/27 05:00:23;;;;;;;0.53;0.50;;;;;;;9.81;82.81;99820.13;5071875;28;20222;-68
2023/12/27 05:02:50;;;;;;;1.17;0.80;;;;;;;9.80;83.14;99847.44;5071403;28;20304;-67
2023/12/27 05:05:17;;;;;;;0.70;0.70;;;;;;;9.72;83.70;99843.34;5076240;28;20195;-67
2023/12/27 05:07:44;;;;;;;0.80;0.80;;;;;;;9.63;85.23;99840.97;5071563;28;20231;-67
2023/12/27 05:10:11;;;;;;;1.63;1.63;;;;;;;9.58;86.32;99850.44;5070944;28;20196;-67
2023/12/27 05:12:37;;;;;;;0.97;0.97;;;;;;;9.61;87.46;99864.03;5073730;28;20200;-67
2023/12/27 05:15:05;;;;;;;0.80;0.80;;;;;;;9.58;88.40;99863.25;5071218;28;20561;-67
2023/12/27 05:17:33;;;;;;;2.13;1.17;;;;;;;9.63;89.20;99858.91;5070826;28;20196;-67
2023/12/27 05:20:00;;;;;;;1.23;1.23;;;;;;;9.63;90.07;99864.00;5072574;28;20200;-67
2023/12/27 05:22:27;;;;;;;0.80;0.80;;;;;;;9.70;90.26;99860.44;5070986;28;20215;-67
2023/12/27 05:24:54;;;;;;;1.00;1.00;;;;;;;9.77;90.01;99873.09;5072271;28;20202;-67
2023/12/27 05:27:21;;;;;;;5.57;1.27;;;;;;;9.75;89.78;99874.88;5070991;28;20211;-68
2023/12/27 05:29:48;;;;;;;1.23;1.23;;;;;;;9.69;89.59;99879.25;5071789;28;20192;-67
2023/12/27 05:32:14;;;;;;;1.47;1.30;;;;;;;9.63;89.54;99880.19;5070731;28;20192;-67
2023/12/27 05:34:42;;;;;;;1.03;1.03;;;;;;;9.47;89.09;99878.78;5070685;28;20195;-67
2023/12/27 05:37:09;;;;;;;0.93;0.80;;;;;;;9.48;89.18;99899.25;5070383;28;20196;-67
2023/12/27 05:39:36;;;;;;;0.80;0.80;;;;;;;9.41;89.83;99900.22;5073232;28;20676;-67
2023/12/27 05:42:03;;;;;;;2.10;0.70;;;;;;;9.31;91.00;99903.81;5071500;28;20246;-67
2023/12/27 05:44:29;;;;;;;1.33;1.00;;;;;;;9.31;92.17;99903.81;5070612;28;20269;-67
2023/12/27 05:46:55;;;;;;;0.60;0.60;;;;;;;9.29;92.85;99902.16;5070702;28;20208;-67
2023/12/27 05:49:22;;;;;;;1.27;0.83;;;;;;;9.22;92.98;99888.63;5070891;28;20196;-67
2023/12/27 05:51:50;;;;;;;0.60;0.60;;;;;;;9.24;93.28;99902.22;5070160;28;20238;-67
2023/12/27 05:54:18;;;;;;;2.30;0.90;;;;;;;9.24;93.29;99899.66;5070243;28;20196;-67
2023/12/27 05:56:45;;;;;;;2.77;0.80;;;;;;;9.21;93.58;99904.81;5071914;28;20199;-67
2023/12/27 05:59:11;;;;;;;1.50;1.50;;;;;;;9.17;94.09;99907.47;5072848;28;20661;-67
2023/12/27 06:01:38;;;;;;;0.80;0.80;;;;;;;9.18;94.86;99910.00;5073651;28;20285;-67
2023/12/27 06:04:05;;;;;;;1.00;0.90;;;;;;;9.21;95.43;99906.56;5075711;28;20206;-67
2023/12/27 06:06:31;;;;;;;0.93;0.90;;;;;;;9.15;95.32;99901.53;5070311;28;20717;-67
2023/12/27 06:08:59;;;;;;;0.90;0.90;;;;;;;9.29;95.51;99910.66;5072105;28;20203;-67
2023/12/27 06:11:26;;;;;;;0.83;0.83;;;;;;;9.30;95.53;99909.81;5072845;28;20188;-67
2023/12/27 06:13:53;;;;;;;1.47;1.40;;;;;;;9.38;94.91;99919.91;5070285;28;20200;-67
2023/12/27 06:16:19;;;;;;;3.13;0.70;;;;;;;9.37;95.15;99919.03;5070636;28;20630;-67
2023/12/27 06:18:46;;;;;;;0.70;0.70;;;;;;;9.39;94.71;99922.44;5070114;28;20622;-67
2023/12/27 06:21:13;;;;;;;0.80;0.80;;;;;;;9.52;94.36;99943.53;5072605;28;20199;-67
2023/12/27 06:23:40;;;;;;;0.60;0.60;;;;;;;9.52;93.79;99933.31;5070469;28;20203;-68
2023/12/27 06:26:08;;;;;;;5.97;0.83;;;;;;;9.57;93.46;99940.88;5070357;28;20253;-67
2023/12/27 06:28:34;;;;;;;0.80;0.70;;;;;;;9.57;93.55;99943.44;5068807;28;20199;-67
2023/12/27 06:31:01;;;;;;;1.33;1.33;;;;;;;9.61;93.45;99942.53;5071522;28;20188;-66
2023/12/27 06:33:28;;;;;;;0.60;0.60;;;;;;;9.64;93.68;99962.94;5070470;28;20195;-66
2023/12/27 06:35:54;;;;;;;1.83;1.40;;;;;;;9.61;93.41;99960.44;5069819;28;20242;-65
2023/12/27 06:38:21;;;;;;;1.17;1.07;;;;;;;9.66;93.20;99967.16;5068925;28;20254;-65
2023/12/27 06:40:48;;;;;;;1.00;1.00;;;;;;;9.66;92.96;99976.59;5070781;28;20257;-66
2023/12/27 06:43:16;;;;;;;0.50;0.50;;;;;;;9.74;92.17;99985.81;5070474;28;20293;-65
2023/12/27 06:45:43;;;;;;;0.70;0.70;;;;;;;9.77;91.71;99990.03;5068978;28;20672;-66
2023/12/27 06:48:09;;;;;;;4.80;1.03;;;;;;;9.80;90.59;99989.97;5070431;28;20199;-66
2023/12/27 06:50:36;;;;;;;0.90;0.90;;;;;;;9.81;89.85;99992.53;5070222;28;20200;-66
2023/12/27 06:53:03;;;;;;;0.80;0.80;;;;;;;9.92;89.13;99992.31;5070767;28;20324;-66
2023/12/27 06:55:29;;;;;;;0.80;0.80;;;;;;;10.01;88.40;99989.59;5069972;28;20202;-65
2023/12/27 06:57:56;;;;;;;0.77;0.77;;;;;;;10.00;88.27;99998.16;5070589;28;20204;-65
2023/12/27 07:00:24;;;;;;;1.40;1.03;;;;;;;10.04;87.76;99994.66;5070235;28;20212;-66
2023/12/27 07:02:51;;;;;;;0.93;0.93;;;;;;;10.09;87.28;99999.69;5071281;28;20216;-66
2023/12/27 07:05:18;;;;;;;1.80;1.70;;;;;;;10.14;86.52;100016.72;5066350;28;20707;-65
2023/12/27 07:07:46;;;;;;;0.80;0.80;;;;;;;10.21;86.56;100010.59;5069484;28;20196;-66
2023/12/27 07:10:13;;;;;;;1.03;0.83;;;;;;;10.22;86.39;100019.13;5070782;28;20729;-67
2023/12/27 07:12:40;;;;;;;1.13;1.10;;;;;;;10.32;86.34;100036.88;5075582;28;20229;-66
2023/12/27 07:15:10;;;;;;;0.80;0.80;;;;;;;10.33;85.83;100041.13;5076389;28;20253;-66
2023/12/27 07:17:38;;;;;;;1.50;1.40;;;;;;;10.37;85.70;100040.16;5074417;28;20683;-66
2023/12/27 07:20:06;;;;;;;0.80;0.80;;;;;;;10.46;85.77;100045.16;5075054;28;20250;-66
2023/12/27 07:22:32;;;;;;;1.20;1.20;;;;;;;10.54;85.90;100043.25;5073793;28;20278;-66
2023/12/27 07:24:59;;;;;;;1.10;1.10;;;;;;;10.66;85.83;100051.59;5073269;28;20207;-67
2023/12/27 07:27:26;;;;;;;1.07;1.07;;;;;;;10.76;85.88;100055.66;5073140;28;20196;-66
2023/12/27 07:29:52;;;;;;;1.20;1.20;;;;;;;10.81;85.61;100053.84;5073678;28;20200;-66
2023/12/27 07:32:20;;;;;;;2.37;0.80;;;;;;;10.90;85.78;100058.78;5075123;28;20269;-66
2023/12/27 07:34:48;;;;;;;1.27;1.27;;;;;;;10.94;86.36;100060.41;5073805;28;20283;-66
2023/12/27 07:37:15;;;;;;;1.00;1.00;;;;;;;11.00;86.08;100058.56;5072759;28;20200;-65
2023/12/27 07:39:41;;;;;;;0.70;0.70;;;;;;;11.06;86.62;100065.25;5076737;28;20626;-64
2023/12/27 07:42:08;;;;;;;1.80;1.30;;;;;;;11.19;86.44;100053.84;5076315;28;20757;-65
2023/12/27 07:44:35;;;;;;;0.90;0.90;;;;;;;11.33;86.63;100058.69;5072580;28;20204;-65
2023/12/27 07:47:04;;;;;;;1.00;1.00;;;;;;;11.41;86.92;100055.06;5071329;28;20249;-65
2023/12/27 07:49:30;;;;;;;1.03;1.03;;;;;;;11.45;86.92;100046.41;5072111;28;20214;-65
2023/12/27 07:51:59;;;;;;;1.13;1.07;;;;;;;11.69;85.69;100074.97;5072349;28;20231;-65
2023/12/27 07:54:26;;;;;;;2.40;1.57;;;;;;;11.75;84.56;100077.41;5074226;28;20664;-65
2023/12/27 07:56:55;;;;;;;4.30;1.70;;;;;;;11.79;84.16;100079.03;5073537;28;20196;-65
2023/12/27 07:59:23;;;;;;;1.10;0.97;;;;;;;11.89;83.26;100083.06;5072736;28;20200;-64
2023/12/27 08:01:49;;;;;;;2.30;1.60;;;;;;;12.01;82.96;100078.47;5073643;28;20228;-65
2023/12/27 08:04:16;;;;;;;1.37;0.87;;;;;;;12.16;81.57;100087.50;5076841;28;20196;-66
2023/12/27 08:06:43;;;;;;;1.30;1.30;;;;;;;12.32;81.39;100090.50;5072220;28;20684;-64
2023/12/27 08:09:11;;;;;;;1.33;1.33;;;;;;;12.40;81.06;100092.03;5073781;28;20193;-65
2023/12/27 08:11:38;;;;;;;2.23;1.53;;;;;;;12.57;80.24;100094.97;5073411;28;20196;-65
2023/12/27 08:14:05;;;;;;;1.60;1.07;;;;;;;12.64;80.32;100099.06;5073077;28;20196;-66
2023/12/27 08:16:31;;;;;;;1.73;1.00;;;;;;;12.82;79.27;100109.75;5074178;28;20252;-65
2023/12/27 08:18:58;;;;;;;1.20;1.20;;;;;;;12.90;79.70;100108.63;5074457;28;20208;-65
2023/12/27 08:21:25;;;;;;;3.00;1.80;;;;;;;12.93;79.45;100103.38;5074787;28;20559;-61
2023/12/27 08:23:55;;;;;;;0.83;0.83;;;;;;;13.21;78.39;100123.22;5071092;28;20214;-62
2023/12/27 08:26:23;;;;;;;2.20;1.30;;;;;;;13.27;78.22;100118.75;5073401;28;20693;-62
2023/12/27 08:28:50;;;;;;;0.80;0.80;;;;;;;13.38;78.11;100126.97;5070467;28;20202;-62
2023/12/27 08:31:17;;;;;;;0.97;0.97;;;;;;;13.46;78.54;100132.75;5070942;28;20242;-62
2023/12/27 08:33:48;;;;;;;0.87;0.87;;;;;;;13.56;78.56;100141.06;5071589;28;20203;-62
2023/12/27 08:36:15;;;;;;;1.23;1.00;;;;;;;13.62;78.11;100133.13;5071188;28;20202;-62
2023/12/27 08:38:41;;;;;;;1.73;1.53;;;;;;;13.80;77.89;100134.28;5071436;28;20251;-62
2023/12/27 08:41:08;;;;;;;2.03;1.30;;;;;;;13.88;78.62;100133.16;5071529;28;20231;-62
2023/12/27 08:43:37;;;;;;;0.93;0.93;;;;;;;14.00;77.85;100121.59;5072055;28;20218;-62
2023/12/27 08:46:08;;;;;;;0.70;0.70;;;;;;;14.07;77.42;100123.09;5071893;28;20215;-62
2023/12/27 08:48:35;;;;;;;0.93;0.93;;;;;;;14.21;77.94;100120.91;5073530;28;20196;-63
2023/12/27 08:51:02;;;;;;;1.33;1.20;;;;;;;14.25;77.23;100112.16;5071408;28;20200;-62
2023/12/27 08:53:29;;;;;;;1.60;1.60;;;;;;;14.36;77.18;100115.25;5072839;28;20192;-63
2023/12/27 08:55:56;;;;;;;0.83;0.83;;;;;;;14.45;76.96;100120.09;5070375;28;20196;-63
2023/12/27 08:58:26;;;;;;;1.30;1.30;;;;;;;14.54;77.96;100108.63;5071475;28;20199;-65
2023/12/27 09:00:54;;;;;;;1.87;1.27;;;;;;;14.69;76.96;100120.97;5068106;28;20258;-69
2023/12/27 09:03:21;;;;;;;1.73;1.10;;;;;;;14.73;76.38;100106.25;5072099;28;20216;-66
2023/12/27 09:05:47;;;;;;;1.37;1.37;;;;;;;14.80;75.81;100105.13;5072878;28;20200;-65
2023/12/27 09:08:14;;;;;;;1.67;1.57;;;;;;;14.89;76.13;100104.78;5072058;28;20621;-66
2023/12/27 09:10:41;;;;;;;1.27;1.27;;;;;;;14.98;76.41;100104.44;5071678;28;20257;-65
2023/12/27 09:13:08;;;;;;;1.63;1.52;;;;;;;15.15;75.23;100102.09;5073167;28;20803;-66
2023/12/27 09:15:34;;;;;;;1.65;1.55;;;;;;;15.24;74.49;100106.91;5071655;28;20410;-67
2023/12/27 09:18:03;;;;;;;1.03;1.03;;;;;;;15.32;74.46;100110.00;5072168;28;20196;-65
2023/12/27 09:20:29;;;;;;;1.07;1.07;;;;;;;15.47;74.66;100124.97;5073526;28;20279;-65
2023/12/27 09:22:56;;;;;;;0.90;0.90;;;;;;;15.57;73.85;100104.78;5073456;28;20277;-65
2023/12/27 09:25:23;;;;;;;1.93;1.60;;;;;;;15.60;74.13;100102.94;5071070;28;20664;-65
2023/12/27 09:27:49;;;;;;;1.83;1.40;;;;;;;15.62;73.37;100093.38;5071381;28;20192;-65
2023/12/27 09:30:16;;;;;;;1.33;1.33;;;;;;;15.79;72.95;100103.03;5073194;28;20615;-66
2023/12/27 09:32:43;;;;;;;1.37;1.37;;;;;;;15.89;73.14;100111.25;5070572;28;20196;-67
2023/12/27 09:35:12;;;;;;;1.57;1.47;;;;;;;15.96;72.71;100104.94;5071126;28;20659;-67
2023/12/27 09:37:38;;;;;;;1.53;1.37;;;;;;;16.07;72.13;100100.16;5069911;28;20257;-67
2023/12/27 09:40:06;;;;;;;1.47;1.03;;;;;;;16.22;71.08;100090.00;5074666;28;20200;-67
2023/12/27 09:42:33;;;;;;;1.27;1.23;;;;;;;16.34;69.44;100083.47;5070945;28;20216;-67
2023/12/27 09:45:04;;;;;;;1.23;0.90;;;;;;;16.42;69.98;100091.75;5070946;28;20666;-67
2023/12/27 09:47:32;;;;;;;0.80;0.80;;;;;;;16.48;69.14;100081.13;5072193;28;20200;-67
2023/12/27 09:50:00;;;;;;;3.67;1.77;;;;;;;16.53;68.76;100079.19;5069739;28;20250;-67
2023/12/27 09:52:31;;;;;;;2.13;1.43;;;;;;;16.49;68.80;100056.94;5070244;28;20216;-67
2023/12/27 09:54:57;;;;;;;0.80;0.80;;;;;;;16.69;69.33;100069.88;5070973;28;20196;-67
2023/12/27 09:57:25;;;;;;;1.27;1.27;;;;;;;16.80;68.10;100065.03;5070932;28;20261;-67
2023/12/27 09:59:54;;;;;;;1.00;1.00;;;;;;;16.89;67.44;100075.91;5074245;28;20203;-67
2023/12/27 10:02:23;;;;;;;1.00;1.00;;;;;;;16.93;67.58;100082.63;5071226;28;20224;-66
2023/12/27 10:04:58;;;;;;;0.77;0.77;;;;;;;16.99;68.70;100077.19;5069491;28;20200;-67
2023/12/27 10:07:26;;;;;;;0.90;0.90;;;;;;;17.07;67.90;100059.53;5072400;28;20666;-67
2023/12/27 10:09:56;;;;;;;1.00;1.00;;;;;;;17.22;65.62;100064.00;5070780;28;20257;-67
2023/12/27 10:12:22;;;;;;;1.87;0.93;;;;;;;17.16;65.87;100069.44;5070954;28;20203;-66
2023/12/27 10:14:52;;;;;;;0.93;0.90;;;;;;;17.21;66.23;100060.56;5067717;28;20245;-67
2023/12/27 10:17:19;;;;;;;0.80;0.80;;;;;;;17.30;65.00;100067.06;5070577;28;20245;-66
2023/12/27 10:19:46;;;;;;;2.83;1.40;;;;;;;17.33;64.10;100056.56;5072151;28;20195;-67
2023/12/27 10:22:13;;;;;;;2.63;0.90;;;;;;;17.37;64.11;100058.09;5072303;28;20249;-66
2023/12/27 10:24:40;;;;;;;0.80;0.80;;;;;;;17.39;65.46;100040.72;5070240;28;20203;-67
2023/12/27 10:27:10;;;;;;;0.93;0.93;;;;;;;17.41;64.47;100031.13;5070563;28;20199;-67
2023/12/27 10:29:38;;;;;;;0.93;0.93;;;;;;;17.54;64.57;100024.44;5070369;28;20201;-67
2023/12/27 10:32:06;;;;;;;1.27;0.87;;;;;;;17.56;64.83;100027.81;5070705;28;20202;-67
2023/12/27 10:34:34;;;;;;;1.20;1.10;;;;;;;17.59;64.98;100029.41;5070161;28;20201;-66
2023/12/27 10:37:01;;;;;;;1.30;1.30;;;;;;;17.62;64.55;100022.31;5069933;28;20650;-67
2023/12/27 10:39:28;;;;;;;1.10;1.10;;;;;;;17.72;63.09;100013.19;5071587;28;20242;-66
2023/12/27 10:41:55;;;;;;;0.90;0.90;;;;;;;17.74;61.65;100021.72;5072887;28;20258;-67
2023/12/27 10:44:23;;;;;;;0.70;0.70;;;;;;;17.75;61.71;100023.41;5077022;28;20282;-67
2023/12/27 10:46:53;;;;;;;0.87;0.87;;;;;;;17.68;62.40;99998.69;5079006;28;20204;-67
2023/12/27 10:49:24;;;;;;;2.93;1.20;;;;;;;17.79;63.55;100014.56;5074422;28;20813;-67
2023/12/27 10:51:55;;;;;;;0.73;0.73;;;;;;;17.84;62.08;100015.16;5078066;28;20257;-67
2023/12/27 10:54:23;;;;;;;1.50;1.17;;;;;;;17.78;61.90;100018.06;5067217;28;20194;-67
2023/12/27 10:56:52;;;;;;;2.83;0.90;;;;;;;17.85;61.22;100018.59;5069511;28;20207;-67
2023/12/27 10:59:19;;;;;;;0.93;0.93;;;;;;;17.77;61.19;100006.00;5071930;28;20199;-67
2023/12/27 11:01:48;;;;;;;1.13;0.97;;;;;;;17.88;60.00;99991.66;5073552;28;20269;-67
2023/12/27 11:04:17;;;;;;;0.83;0.83;;;;;;;17.90;60.60;99990.66;5071642;28;20217;-67
2023/12/27 11:06:46;;;;;;;0.90;0.90;;;;;;;17.97;60.03;99991.19;5069960;28;20210;-67
2023/12/27 11:09:13;;;;;;;1.40;1.07;;;;;;;17.95;59.60;99995.63;5074652;28;20249;-67
2023/12/27 11:11:41;;;;;;;1.20;1.10;;;;;;;17.90;60.91;100008.00;5070666;28;20212;-67
2023/12/27 11:14:11;;;;;;;1.30;1.20;;;;;;;17.87;60.25;100001.19;5071985;28;20743;-67
2023/12/27 11:16:40;;;;;;;1.43;1.40;;;;;;;17.87;58.99;100010.75;5075157;28;20227;-67
2023/12/27 11:19:09;;;;;;;1.00;1.00;;;;;;;17.81;59.50;100002.34;5072155;28;20311;-67
2023/12/27 11:21:36;;;;;;;1.13;0.90;;;;;;;17.82;58.05;99993.66;5068110;28;20266;-67
2023/12/27 11:24:04;;;;;;;1.17;1.07;;;;;;;17.86;57.08;99988.31;5069833;28;20276;-66
2023/12/27 11:26:36;;;;;;;0.73;0.73;;;;;;;17.90;56.86;99979.47;5071675;28;20204;-68
2023/12/27 11:29:07;;;;;;;0.80;0.80;;;;;;;17.96;57.14;99979.16;5070594;28;20572;-68
2023/12/27 11:31:33;;;;;;;0.80;0.80;;;;;;;17.96;56.90;99984.34;5074505;28;20200;-67
2023/12/27 11:34:02;;;;;;;0.77;0.77;;;;;;;17.90;57.69;99974.28;5069608;28;20256;-66